Aérodrome :
LOGIN :

S'inscrire | Disclaimer

   EN    FR    IT 

 










Légende :    VFR   VFR Marginal   IFR   IFR Intensif   IFR Très Intensif
Visi : 
Plafond : 
>= 8 km
>= 3000ft
5 à 8 km
1000 à 3000 ft
1500m à 5 km
500 à 1000 ft
800 à 1500m
200 à 500 ft
< 800m
< 200 ft
Symboles :   Orages  Brouillard  Fortes neiges  Fortes précipitations  Vent > 20 kt
SIGMETs :   Divers  Orages  Givrage  Turbulence  Onde Orograph.  Cendres Volcan.






- Altitude de l'aérodrome : 1470 ft
- Code IATA : KLU


LOWK - Klagenfurt

DERNIER METAR :
  • 200920Z 29003KT 9999 SCT060 BKN140 M02/M06 Q1044 R10L/19//95 NOSIG

METARs EXPIRÉS :
  • 200850Z 28004KT 9999 BKN060 M03/M06 Q1043 R10L/19//95 NOSIG
  • 200820Z VRB02KT 9999 BKN060 M04/M07 Q1043 R10L/19//95 NOSIG
  • 200750Z 28004KT 9999 BKN060 M04/M07 Q1043 R10L/19//95 NOSIG
  • 200720Z 30004KT 9999 SCT060 BKN180 M05/M08 Q1042 R10L/19//95 NOSIG
  • 200650Z 31004KT 9999 FEW060 BKN180 M05/M08 Q1042 R10L/19//95 NOSIG

TAF TAF LOWK
Valide du 20 à 06h jusqu'au 21 à 06h UTC


200515Z 2006/2106 VRB02KT 9999 FEW050 SCT150 TX03/2014Z TNM05/2006Z
TEMPO 2012/2018 09006KT BKN050
TEMPO 2018/2106 BKN030



MET'MAP, la Météo Aéronautique d'un coup d'oeil ! - Copyright ORBIFLY Décembre 2007 - Disclaimer

ORBIFLY MET'MAP TEAM :

Programmation & Développement : Alexandra Zaïnal
Sur une idée originale de : Baudouin d'Aumeries
Assistance à la programmation : Marc-Olivier Méhu
Soutien technique & logistique : Manuel Goepfert

Contact : metmap@orbifly.com




SOURCES & CREDITS :

   NOAA